createdAt,value
2019-02-04T00:01:17.530Z,1025.5
2019-02-04T00:06:05.985Z,1025.6
2019-02-04T00:11:06.127Z,1025.7
2019-02-04T00:16:06.366Z,1025.7
2019-02-04T00:21:06.181Z,1025.6
2019-02-04T00:26:06.201Z,1025.6
2019-02-04T00:31:06.134Z,1025.6
2019-02-04T00:36:06.201Z,1025.7
2019-02-04T00:41:06.248Z,1025.7
2019-02-04T00:46:05.995Z,1025.7
2019-02-04T00:51:06.137Z,1025.6
2019-02-04T00:56:06.138Z,1025.6
2019-02-04T01:01:06.000Z,1025.5
2019-02-04T01:06:06.267Z,1025.5
2019-02-04T01:11:06.363Z,1025.5
2019-02-04T01:16:06.150Z,1025.4
2019-02-04T01:21:06.236Z,1025.5
2019-02-04T01:26:06.056Z,1025.5
2019-02-04T01:31:06.178Z,1025.6
2019-02-04T01:36:06.261Z,1025.5
2019-02-04T01:41:06.058Z,1025.6
2019-02-04T01:46:06.213Z,1025.6
2019-02-04T01:51:06.103Z,1025.7
2019-02-04T01:56:06.220Z,1025.7
2019-02-04T02:01:06.172Z,1025.8
2019-02-04T02:06:06.126Z,1025.7
2019-02-04T02:11:06.294Z,1025.7
2019-02-04T02:16:06.229Z,1025.7
2019-02-04T02:21:06.047Z,1025.8
2019-02-04T02:26:05.834Z,1025.7
2019-02-04T02:31:06.133Z,1025.6
2019-02-04T02:36:05.902Z,1025.6
2019-02-04T02:41:06.044Z,1025.5
2019-02-04T02:46:06.024Z,1025.6
2019-02-04T02:51:06.076Z,1025.6
2019-02-04T02:56:06.057Z,1025.5
2019-02-04T03:01:05.795Z,1025.5
2019-02-04T03:06:05.762Z,1025.5
2019-02-04T03:11:06.093Z,1025.5
2019-02-04T03:16:06.099Z,1025.5
2019-02-04T03:21:05.813Z,1025.5
2019-02-04T03:26:05.860Z,1025.4
2019-02-04T03:31:05.997Z,1025.4
2019-02-04T03:36:06.040Z,1025.3
2019-02-04T03:41:05.809Z,1025.2
2019-02-04T03:46:05.798Z,1025.1
2019-02-04T03:51:05.815Z,1025.1
2019-02-04T03:56:17.512Z,1025.1
2019-02-04T04:01:05.935Z,1025.1
2019-02-04T04:06:05.959Z,1025.1
2019-02-04T04:11:06.004Z,1025.1
2019-02-04T04:16:05.955Z,1025.1
2019-02-04T04:21:06.036Z,1025.2
2019-02-04T04:26:05.841Z,1025.1
2019-02-04T04:31:05.701Z,1025.1
2019-02-04T04:36:05.986Z,1025.1
2019-02-04T04:41:05.676Z,1025.1
2019-02-04T04:46:05.882Z,1025
2019-02-04T04:51:05.935Z,1025
2019-02-04T04:56:05.918Z,1025
2019-02-04T05:01:05.962Z,1025
2019-02-04T05:06:05.724Z,1024.9
2019-02-04T05:11:05.679Z,1024.9
2019-02-04T05:16:05.850Z,1024.8
2019-02-04T05:21:05.738Z,1024.8
2019-02-04T05:26:05.851Z,1024.8
2019-02-04T05:31:05.711Z,1024.8
2019-02-04T05:36:05.704Z,1024.8
2019-02-04T05:41:05.575Z,1024.7
2019-02-04T05:46:05.846Z,1024.6
2019-02-04T05:51:05.678Z,1024.5
2019-02-04T05:56:05.601Z,1024.5
2019-02-04T06:01:05.833Z,1024.4
2019-02-04T06:06:05.548Z,1024.3
2019-02-04T06:11:05.686Z,1024.4
2019-02-04T06:16:05.501Z,1024.4
2019-02-04T06:21:05.575Z,1024.4
2019-02-04T06:26:05.693Z,1024.3
2019-02-04T06:31:05.693Z,1024.3
2019-02-04T06:36:05.531Z,1024.3
2019-02-04T06:41:05.782Z,1024.3
2019-02-04T06:46:05.571Z,1024.3
2019-02-04T06:51:05.714Z,1024.4
2019-02-04T06:56:05.547Z,1024.4
2019-02-04T07:01:05.695Z,1024.4
2019-02-04T07:06:05.467Z,1024.4
2019-02-04T07:11:05.577Z,1024.3
2019-02-04T07:16:05.399Z,1024.1
2019-02-04T07:21:05.624Z,1024.1
2019-02-04T07:26:05.366Z,1024
2019-02-04T07:31:05.416Z,1024
2019-02-04T07:36:05.516Z,1024
2019-02-04T07:41:05.588Z,1024
2019-02-04T07:46:05.651Z,1023.9
2019-02-04T07:51:05.364Z,1023.9
2019-02-04T07:56:05.348Z,1023.9
2019-02-04T08:01:05.461Z,1023.9
2019-02-04T08:06:05.496Z,1023.9
2019-02-04T08:11:05.373Z,1024
2019-02-04T08:16:05.614Z,1024
2019-02-04T08:21:05.501Z,1024
2019-02-04T08:26:05.626Z,1024
2019-02-04T08:31:05.659Z,1023.9
2019-02-04T08:36:05.584Z,1023.9
2019-02-04T08:41:05.692Z,1023.9
2019-02-04T08:46:05.557Z,1023.8
2019-02-04T08:51:05.565Z,1023.8
2019-02-04T08:56:05.343Z,1023.8
2019-02-04T09:01:05.426Z,1023.7
2019-02-04T09:06:05.286Z,1023.7
2019-02-04T09:11:05.349Z,1023.6
2019-02-04T09:16:05.310Z,1023.6
2019-02-04T09:21:05.484Z,1023.6
2019-02-04T09:26:05.494Z,1023.5
2019-02-04T09:31:05.510Z,1023.5
2019-02-04T09:36:05.419Z,1023.5
2019-02-04T09:41:05.296Z,1023.5
2019-02-04T09:46:05.395Z,1023.4
2019-02-04T09:51:05.257Z,1023.4
2019-02-04T09:56:05.506Z,1023.4
2019-02-04T10:01:05.263Z,1023.4
2019-02-04T10:06:05.253Z,1023.5
2019-02-04T10:11:05.330Z,1023.4
2019-02-04T10:16:05.233Z,1023.4
2019-02-04T10:21:05.303Z,1023.4
2019-02-04T10:26:05.207Z,1023.4
2019-02-04T10:31:05.268Z,1023.4
2019-02-04T10:36:05.441Z,1023.4
2019-02-04T10:41:05.154Z,1023.5
2019-02-04T10:46:05.308Z,1023.3
2019-02-04T10:51:05.344Z,1023.3
2019-02-04T10:56:05.109Z,1023.2
2019-02-04T11:01:05.523Z,1023.2
2019-02-04T11:06:05.367Z,1023.1
2019-02-04T11:11:05.386Z,1023.2
2019-02-04T11:16:05.202Z,1023.3
2019-02-04T11:21:05.205Z,1023.3
2019-02-04T11:26:05.083Z,1023.3
2019-02-04T11:31:05.345Z,1023.3
2019-02-04T11:36:05.147Z,1023.2
2019-02-04T11:41:05.338Z,1023.2
2019-02-04T11:46:05.412Z,1023.3
2019-02-04T11:51:09.858Z,1023.2
2019-02-04T11:56:05.069Z,1023.1
2019-02-04T12:01:05.305Z,1023.1
2019-02-04T12:06:05.131Z,1023
2019-02-04T12:11:05.246Z,1023
2019-02-04T12:16:05.340Z,1022.9
2019-02-04T12:21:05.053Z,1023.1
2019-02-04T12:26:05.019Z,1022.9
2019-02-04T12:31:05.138Z,1022.9
2019-02-04T12:36:05.003Z,1022.8
2019-02-04T12:41:05.387Z,1022.8
2019-02-04T12:46:05.143Z,1022.7
2019-02-04T12:51:05.174Z,1022.7
2019-02-04T12:56:05.270Z,1022.7
2019-02-04T13:01:05.066Z,1022.6
2019-02-04T13:06:04.932Z,1022.5
2019-02-04T13:11:05.065Z,1022.5
2019-02-04T13:16:04.873Z,1022.4
2019-02-04T13:21:05.087Z,1022.4
2019-02-04T13:26:05.009Z,1022.4
2019-02-04T13:31:05.036Z,1022.3
2019-02-04T13:36:05.111Z,1022.2
2019-02-04T13:41:08.074Z,1022.2
2019-02-04T13:46:05.962Z,1022.1
2019-02-04T13:51:05.189Z,1022
2019-02-04T13:56:04.913Z,1022
2019-02-04T14:01:04.875Z,1022
2019-02-04T14:06:05.069Z,1022
2019-02-04T14:11:05.247Z,1021.9
2019-02-04T14:16:05.083Z,1021.9
2019-02-04T14:21:05.319Z,1021.9
2019-02-04T14:26:04.813Z,1021.8
2019-02-04T14:31:05.169Z,1021.8
2019-02-04T14:36:05.147Z,1021.7
2019-02-04T14:41:04.916Z,1021.7
2019-02-04T14:46:05.025Z,1021.6
2019-02-04T14:51:05.042Z,1021.6
2019-02-04T14:56:04.999Z,1021.6
2019-02-04T15:01:04.803Z,1021.6
2019-02-04T15:06:05.032Z,1021.5
2019-02-04T15:11:04.885Z,1021.4
2019-02-04T15:16:04.784Z,1021.4
2019-02-04T15:21:05.041Z,1021.5
2019-02-04T15:26:04.756Z,1021.4
2019-02-04T15:31:05.041Z,1021.3
2019-02-04T15:36:04.724Z,1021.3
2019-02-04T15:41:04.922Z,1021.3
2019-02-04T15:46:04.881Z,1021.3
2019-02-04T15:51:04.965Z,1021.2
2019-02-04T15:56:04.961Z,1021.2
2019-02-04T16:01:04.941Z,1021.2
2019-02-04T16:06:04.931Z,1021.3
2019-02-04T16:11:04.773Z,1021.4
2019-02-04T16:16:04.863Z,1021.4
2019-02-04T16:21:04.777Z,1021.4
2019-02-04T16:26:04.970Z,1021.5
2019-02-04T16:31:05.022Z,1021.5
2019-02-04T16:36:04.883Z,1021.6
2019-02-04T16:41:04.704Z,1021.6
2019-02-04T16:46:04.630Z,1021.6
2019-02-04T16:51:11.677Z,1021.6
2019-02-04T16:56:04.688Z,1021.7
2019-02-04T17:01:04.870Z,1021.6
2019-02-04T17:06:04.799Z,1021.6
2019-02-04T17:11:05.016Z,1021.8
2019-02-04T17:16:04.840Z,1021.7
2019-02-04T17:21:04.723Z,1021.8
2019-02-04T17:26:04.710Z,1021.8
2019-02-04T17:31:04.907Z,1021.9
2019-02-04T17:36:04.683Z,1021.9
2019-02-04T17:41:04.659Z,1021.9
2019-02-04T17:46:04.865Z,1021.9
2019-02-04T17:51:04.563Z,1022
2019-02-04T17:56:04.675Z,1022
2019-02-04T18:01:04.817Z,1021.9
2019-02-04T18:06:04.817Z,1021.9
2019-02-04T18:11:04.789Z,1022.1
2019-02-04T18:16:04.613Z,1022
2019-02-04T18:21:04.708Z,1022
2019-02-04T18:26:04.539Z,1022
2019-02-04T18:31:04.783Z,1021.9
2019-02-04T18:36:04.823Z,1022
2019-02-04T18:41:04.629Z,1022
2019-02-04T18:46:04.689Z,1022.1
2019-02-04T18:51:04.862Z,1022.1
2019-02-04T18:56:04.539Z,1022.3
2019-02-04T19:01:04.679Z,1022.2
2019-02-04T19:06:04.704Z,1022.4
2019-02-04T19:11:04.570Z,1022.5
2019-02-04T19:16:04.741Z,1022.5
2019-02-04T19:21:04.869Z,1022.5
2019-02-04T19:26:04.735Z,1022.5
2019-02-04T19:31:04.706Z,1022.5
2019-02-04T19:36:04.818Z,1022.5
2019-02-04T19:41:04.710Z,1022.5
2019-02-04T19:46:04.463Z,1022.6
2019-02-04T19:51:04.798Z,1022.6
2019-02-04T19:56:04.473Z,1022.6
2019-02-04T20:01:04.509Z,1022.7
2019-02-04T20:06:04.582Z,1022.6
2019-02-04T20:11:04.648Z,1022.7
2019-02-04T20:16:04.581Z,1022.6
2019-02-04T20:21:04.764Z,1022.6
2019-02-04T20:26:04.368Z,1022.5
2019-02-04T20:31:04.408Z,1022.5
2019-02-04T20:36:04.568Z,1022.5
2019-02-04T20:41:04.506Z,1022.6
2019-02-04T20:46:04.472Z,1022.7
2019-02-04T20:51:04.695Z,1022.8
2019-02-04T20:56:04.326Z,1022.8
2019-02-04T21:01:04.641Z,1022.8
2019-02-04T21:06:04.605Z,1023
2019-02-04T21:11:04.417Z,1023.1
2019-02-04T21:16:04.517Z,1023.1
2019-02-04T21:21:04.401Z,1023.1
2019-02-04T21:26:06.842Z,1023
2019-02-04T21:31:04.571Z,1022.9
2019-02-04T21:36:04.407Z,1023
2019-02-04T21:41:04.436Z,1022.9
2019-02-04T21:46:04.388Z,1023.1
2019-02-04T21:51:04.520Z,1023.3
2019-02-04T21:56:04.305Z,1023.3
2019-02-04T22:01:04.381Z,1023.4
2019-02-04T22:06:04.394Z,1023.3
2019-02-04T22:11:04.325Z,1023.3
2019-02-04T22:16:04.301Z,1023.4
2019-02-04T22:21:04.286Z,1023.3
2019-02-04T22:26:04.418Z,1023.3
2019-02-04T22:31:04.301Z,1023.4
2019-02-04T22:36:04.433Z,1023.4
2019-02-04T22:41:04.492Z,1023.4
2019-02-04T22:46:04.240Z,1023.5
2019-02-04T22:51:04.210Z,1023.4
2019-02-04T22:56:04.152Z,1023.4
2019-02-04T23:01:04.324Z,1023.5
2019-02-04T23:06:04.294Z,1023.5
2019-02-04T23:11:04.271Z,1023.6
2019-02-04T23:16:04.138Z,1023.5
2019-02-04T23:21:04.523Z,1023.5
2019-02-04T23:26:04.191Z,1023.6
2019-02-04T23:31:04.448Z,1023.7
2019-02-04T23:36:04.253Z,1023.7
2019-02-04T23:41:04.454Z,1023.8
2019-02-04T23:46:04.415Z,1023.9
2019-02-04T23:51:04.079Z,1023.9
2019-02-04T23:56:04.086Z,1023.9
